Time,TemperatureF,DewpointF,PressureIn,WindDirection,WindDirectionDegrees,WindSpeedMPH,WindSpeedGustMPH,Humidity,HourlyPrecipIn,Conditions,Clouds,dailyrainin,SolarRadiationWatts/m^2,SoftwareType,DateUTC
2013-01-20 00:00:00,41.0,4.0,-100.00,WNW,291,10.0,15.0,21,0.00,,,0.00,0.000000,,2013-01-20 08:00:00,
2013-01-20 00:22:00,41.0,4.0,-100.00,WNW,291,10.0,15.0,21,0.00,,,0.00,0.000000,,2013-01-20 08:22:00,
2013-01-20 00:32:00,41.0,4.0,-100.00,WNW,291,10.0,15.0,21,0.00,,,0.00,0.000000,,2013-01-20 08:32:00,
2013-01-20 00:42:00,41.0,4.0,-100.00,WNW,291,10.0,15.0,21,0.00,,,0.00,0.000000,,2013-01-20 08:42:00,
2013-01-20 00:52:00,41.0,4.0,-100.00,WNW,291,10.0,15.0,21,0.00,,,0.00,0.000000,,2013-01-20 08:52:00,
2013-01-20 01:00:00,42.0,6.0,-100.00,WNW,290,10.0,16.0,22,0.00,,,0.00,0.000000,,2013-01-20 09:00:00,
2013-01-20 01:33:00,42.0,6.0,-100.00,WNW,290,10.0,16.0,22,0.00,,,0.00,0.000000,,2013-01-20 09:33:00,
2013-01-20 01:42:00,42.0,6.0,-100.00,WNW,290,10.0,16.0,22,0.00,,,0.00,0.000000,,2013-01-20 09:42:00,
2013-01-20 01:52:00,42.0,6.0,-100.00,WNW,290,10.0,16.0,22,0.00,,,0.00,0.000000,,2013-01-20 09:52:00,
2013-01-20 02:00:00,42.0,6.0,-100.00,WNW,292,10.0,17.0,22,0.00,,,0.00,0.000000,,2013-01-20 10:00:00,
2013-01-20 02:32:00,42.0,6.0,-100.00,WNW,292,10.0,17.0,22,0.00,,,0.00,0.000000,,2013-01-20 10:32:00,
2013-01-20 02:42:00,42.0,6.0,-100.00,WNW,292,10.0,17.0,22,0.00,,,0.00,0.000000,,2013-01-20 10:42:00,
2013-01-20 02:52:00,42.0,6.0,-100.00,WNW,292,10.0,17.0,22,0.00,,,0.00,0.000000,,2013-01-20 10:52:00,
2013-01-20 03:00:00,42.0,5.0,-100.00,WNW,292,9.0,17.0,21,0.00,,,0.00,0.000000,,2013-01-20 11:00:00,
2013-01-20 03:22:00,42.0,5.0,-100.00,WNW,292,9.0,17.0,21,0.00,,,0.00,0.000000,,2013-01-20 11:22:00,
2013-01-20 03:33:00,42.0,5.0,-100.00,WNW,292,9.0,17.0,21,0.00,,,0.00,0.000000,,2013-01-20 11:33:00,
2013-01-20 03:43:00,42.0,5.0,-100.00,WNW,292,9.0,17.0,21,0.00,,,0.00,0.000000,,2013-01-20 11:43:00,
2013-01-20 03:53:00,42.0,5.0,-100.00,WNW,292,9.0,17.0,21,0.00,,,0.00,0.000000,,2013-01-20 11:53:00,
2013-01-20 04:00:00,41.0,6.0,-100.00,WNW,287,8.0,16.0,23,0.00,,,0.00,0.000000,,2013-01-20 12:00:00,
2013-01-20 04:33:00,41.0,6.0,-100.00,WNW,287,8.0,16.0,23,0.00,,,0.00,0.000000,,2013-01-20 12:33:00,
2013-01-20 04:43:00,41.0,6.0,-100.00,WNW,287,8.0,16.0,23,0.00,,,0.00,0.000000,,2013-01-20 12:43:00,
2013-01-20 04:53:00,41.0,6.0,-100.00,WNW,287,8.0,16.0,23,0.00,,,0.00,0.000000,,2013-01-20 12:53:00,
2013-01-20 05:00:00,40.0,5.0,-100.00,WNW,295,8.0,14.0,23,0.00,,,0.00,0.000000,,2013-01-20 13:00:00,
2013-01-20 05:33:00,40.0,5.0,-100.00,WNW,295,8.0,14.0,23,0.00,,,0.00,0.000000,,2013-01-20 13:33:00,
2013-01-20 05:43:00,40.0,5.0,-100.00,WNW,295,8.0,14.0,23,0.00,,,0.00,0.000000,,2013-01-20 13:43:00,
2013-01-20 05:53:00,40.0,5.0,-100.00,WNW,295,8.0,14.0,23,0.00,,,0.00,0.000000,,2013-01-20 13:53:00,
2013-01-20 06:00:00,39.0,5.0,-100.00,WNW,291,6.0,13.0,24,0.00,,,0.00,0.000000,,2013-01-20 14:00:00,
2013-01-20 06:23:00,39.0,5.0,-100.00,WNW,291,6.0,13.0,24,0.00,,,0.00,0.000000,,2013-01-20 14:23:00,
2013-01-20 06:33:00,39.0,5.0,-100.00,WNW,291,6.0,13.0,24,0.00,,,0.00,0.000000,,2013-01-20 14:33:00,
2013-01-20 06:43:00,39.0,5.0,-100.00,WNW,291,6.0,13.0,24,0.00,,,0.00,0.000000,,2013-01-20 14:43:00,
2013-01-20 06:53:00,39.0,5.0,-100.00,WNW,291,6.0,13.0,24,0.00,,,0.00,0.000000,,2013-01-20 14:53:00,
2013-01-20 07:00:00,38.0,5.0,-100.00,WNW,283,4.0,11.0,25,0.00,,,0.00,0.000000,,2013-01-20 15:00:00,
2013-01-20 07:33:00,38.0,5.0,-100.00,WNW,283,4.0,11.0,25,0.00,,,0.00,0.000000,,2013-01-20 15:33:00,
2013-01-20 07:43:00,38.0,5.0,-100.00,WNW,283,4.0,11.0,25,0.00,,,0.00,0.000000,,2013-01-20 15:43:00,
2013-01-20 07:53:00,38.0,5.0,-100.00,WNW,283,4.0,11.0,25,0.00,,,0.00,0.000000,,2013-01-20 15:53:00,
2013-01-20 08:00:00,38.0,6.0,-100.00,West,281,7.0,10.0,26,0.00,,,0.00,0.000000,,2013-01-20 16:00:00,
2013-01-20 08:33:00,38.0,6.0,-100.00,West,281,7.0,10.0,26,0.00,,,0.00,0.000000,,2013-01-20 16:33:00,
2013-01-20 08:43:00,38.0,6.0,-100.00,West,281,7.0,10.0,26,0.00,,,0.00,0.000000,,2013-01-20 16:43:00,
2013-01-20 08:53:00,38.0,6.0,-100.00,West,281,7.0,10.0,26,0.00,,,0.00,0.000000,,2013-01-20 16:53:00,
2013-01-20 09:00:00,44.0,6.0,-100.00,SSE,156,0.0,13.0,20,0.00,,,0.00,96.000000,,2013-01-20 17:00:00,
2013-01-20 09:33:00,44.0,6.0,-100.00,SSE,156,0.0,13.0,20,0.00,,,0.00,96.000000,,2013-01-20 17:33:00,
2013-01-20 09:43:00,44.0,6.0,-100.00,SSE,156,0.0,13.0,20,0.00,,,0.00,96.000000,,2013-01-20 17:43:00,
2013-01-20 09:53:00,44.0,6.0,-100.00,SSE,156,0.0,13.0,20,0.00,,,0.00,96.000000,,2013-01-20 17:53:00,
2013-01-20 10:00:00,50.0,8.0,-100.00,ESE,113,1.0,4.0,18,0.00,,,0.00,350.000000,,2013-01-20 18:00:00,
2013-01-20 10:24:00,50.0,8.0,-100.00,ESE,113,1.0,4.0,18,0.00,,,0.00,350.000000,,2013-01-20 18:24:00,
2013-01-20 10:33:00,50.0,8.0,-100.00,ESE,113,1.0,4.0,18,0.00,,,0.00,350.000000,,2013-01-20 18:33:00,
2013-01-20 10:43:00,50.0,8.0,-100.00,ESE,113,1.0,4.0,18,0.00,,,0.00,350.000000,,2013-01-20 18:43:00,
2013-01-20 10:53:00,50.0,8.0,-100.00,ESE,113,1.0,4.0,18,0.00,,,0.00,350.000000,,2013-01-20 18:53:00,
2013-01-20 11:00:00,54.0,11.0,-100.00,SSE,149,1.0,6.0,18,0.00,,,0.00,578.000000,,2013-01-20 19:00:00,
2013-01-20 11:33:00,54.0,11.0,-100.00,SSE,149,1.0,6.0,18,0.00,,,0.00,578.000000,,2013-01-20 19:33:00,
2013-01-20 11:43:00,54.0,11.0,-100.00,SSE,149,1.0,6.0,18,0.00,,,0.00,578.000000,,2013-01-20 19:43:00,
2013-01-20 11:52:00,54.0,11.0,-100.00,SSE,149,1.0,6.0,18,0.00,,,0.00,578.000000,,2013-01-20 19:52:00,
2013-01-20 12:00:00,57.0,14.0,-100.00,ESE,116,2.0,6.0,18,0.00,,,0.00,752.000000,,2013-01-20 20:00:00,
2013-01-20 12:33:00,57.0,14.0,-100.00,ESE,116,2.0,6.0,18,0.00,,,0.00,752.000000,,2013-01-20 20:33:00,
2013-01-20 12:42:00,57.0,14.0,-100.00,ESE,116,2.0,6.0,18,0.00,,,0.00,752.000000,,2013-01-20 20:42:00,
2013-01-20 12:53:00,57.0,14.0,-100.00,ESE,116,2.0,6.0,18,0.00,,,0.00,752.000000,,2013-01-20 20:53:00,
2013-01-20 13:00:00,64.0,12.0,-100.00,ESE,119,3.0,5.0,13,0.00,,,0.00,847.000000,,2013-01-20 21:00:00,
2013-01-20 13:33:00,64.0,12.0,-100.00,ESE,119,3.0,5.0,13,0.00,,,0.00,847.000000,,2013-01-20 21:33:00,
2013-01-20 13:43:00,64.0,12.0,-100.00,ESE,119,3.0,5.0,13,0.00,,,0.00,847.000000,,2013-01-20 21:43:00,
2013-01-20 13:53:00,64.0,12.0,-100.00,ESE,119,3.0,5.0,13,0.00,,,0.00,847.000000,,2013-01-20 21:53:00,
2013-01-20 14:00:00,66.0,8.0,-100.00,SE,126,1.0,7.0,10,0.00,,,-99.99,857.000000,,2013-01-20 22:00:00,
2013-01-20 14:33:00,66.0,8.0,-100.00,SE,126,1.0,7.0,10,0.00,,,-99.99,857.000000,,2013-01-20 22:33:00,
2013-01-20 14:43:00,66.0,8.0,-100.00,SE,126,1.0,7.0,10,0.00,,,-99.99,857.000000,,2013-01-20 22:43:00,
2013-01-20 14:53:00,66.0,8.0,-100.00,SE,126,1.0,7.0,10,0.00,,,-99.99,857.000000,,2013-01-20 22:53:00,
2013-01-20 15:23:00,66.0,-3.0,-100.00,ESE,117,1.0,5.0,6,0.00,,,0.00,782.000000,,2013-01-20 23:23:00,
2013-01-20 15:33:00,66.0,-3.0,-100.00,ESE,117,1.0,5.0,6,0.00,,,0.00,782.000000,,2013-01-20 23:33:00,
2013-01-20 16:23:00,69.0,-1.0,-100.00,ESE,118,0.0,6.0,6,0.00,,,0.00,626.000000,,2013-01-21 00:23:00,
2013-01-20 16:33:00,69.0,-1.0,-100.00,ESE,118,0.0,6.0,6,0.00,,,0.00,626.000000,,2013-01-21 00:33:00,
2013-01-20 17:00:00,62.0,14.0,-100.00,WNW,286,9.0,11.0,15,-99.99,,,0.00,403.000000,,2013-01-21 01:00:00,
2013-01-20 17:33:00,62.0,14.0,-100.00,WNW,286,9.0,11.0,15,-99.99,,,0.00,403.000000,,2013-01-21 01:33:00,
2013-01-20 17:43:00,62.0,14.0,-100.00,WNW,286,9.0,11.0,15,-99.99,,,0.00,403.000000,,2013-01-21 01:43:00,
2013-01-20 17:53:00,62.0,14.0,-100.00,WNW,286,9.0,11.0,15,-99.99,,,0.00,403.000000,,2013-01-21 01:53:00,
2013-01-20 18:00:00,50.0,9.0,-100.00,WNW,292,11.0,16.0,19,-99.99,,,0.00,19.000000,,2013-01-21 02:00:00,
2013-01-20 18:23:00,50.0,9.0,-100.00,WNW,292,11.0,16.0,19,-99.99,,,0.00,19.000000,,2013-01-21 02:23:00,
2013-01-20 18:33:00,50.0,9.0,-100.00,WNW,292,11.0,16.0,19,-99.99,,,0.00,19.000000,,2013-01-21 02:33:00,
2013-01-20 18:43:00,50.0,9.0,-100.00,WNW,292,11.0,16.0,19,-99.99,,,0.00,19.000000,,2013-01-21 02:43:00,
2013-01-20 18:53:00,50.0,9.0,-100.00,WNW,292,11.0,16.0,19,-99.99,,,0.00,19.000000,,2013-01-21 02:53:00,
2013-01-20 19:00:00,48.0,8.0,-100.00,WNW,294,11.0,16.0,19,0.00,,,0.00,1.000000,,2013-01-21 03:00:00,
2013-01-20 19:33:00,48.0,8.0,-100.00,WNW,294,11.0,16.0,19,0.00,,,0.00,1.000000,,2013-01-21 03:33:00,
2013-01-20 19:43:00,48.0,8.0,-100.00,WNW,294,11.0,16.0,19,0.00,,,0.00,1.000000,,2013-01-21 03:43:00,
2013-01-20 19:53:00,48.0,8.0,-100.00,WNW,294,11.0,16.0,19,0.00,,,0.00,1.000000,,2013-01-21 03:53:00,
2013-01-20 20:00:00,45.0,5.0,-100.00,WNW,294,10.0,17.0,19,0.00,,,0.00,0.000000,,2013-01-21 04:00:00,
2013-01-20 20:33:00,45.0,5.0,-100.00,WNW,294,10.0,17.0,19,0.00,,,0.00,0.000000,,2013-01-21 04:33:00,
2013-01-20 20:43:00,45.0,5.0,-100.00,WNW,294,10.0,17.0,19,0.00,,,0.00,0.000000,,2013-01-21 04:43:00,
2013-01-20 20:53:00,45.0,5.0,-100.00,WNW,294,10.0,17.0,19,0.00,,,0.00,0.000000,,2013-01-21 04:53:00,
2013-01-20 21:00:00,45.0,6.0,-100.00,WNW,293,11.0,16.0,20,0.00,,,0.00,0.000000,,2013-01-21 05:00:00,
2013-01-20 21:22:00,45.0,6.0,-100.00,WNW,293,11.0,16.0,20,0.00,,,0.00,0.000000,,2013-01-21 05:22:00,
2013-01-20 21:34:00,45.0,6.0,-100.00,WNW,293,11.0,16.0,20,0.00,,,0.00,0.000000,,2013-01-21 05:34:00,
2013-01-20 21:42:00,45.0,6.0,-100.00,WNW,293,11.0,16.0,20,0.00,,,0.00,0.000000,,2013-01-21 05:42:00,
2013-01-20 21:53:00,45.0,6.0,-100.00,WNW,293,11.0,16.0,20,0.00,,,0.00,0.000000,,2013-01-21 05:53:00,
2013-01-20 22:00:00,46.0,7.0,-100.00,WNW,288,12.0,17.0,20,0.00,,,0.00,0.000000,,2013-01-21 06:00:00,
2013-01-20 22:33:00,46.0,7.0,-100.00,WNW,288,12.0,17.0,20,0.00,,,0.00,0.000000,,2013-01-21 06:33:00,
2013-01-20 22:43:00,46.0,7.0,-100.00,WNW,288,12.0,17.0,20,0.00,,,0.00,0.000000,,2013-01-21 06:43:00,
2013-01-20 22:53:00,46.0,7.0,-100.00,WNW,288,12.0,17.0,20,0.00,,,0.00,0.000000,,2013-01-21 06:53:00,